Gakona, Alaska
Current Conditions -  °F | °C
As of 3:53 AM on Friday 24 Oct 2014 (Local Time) from PAOR Reporting Station
Overcast Overcast  
Wind Chill: 19°   Ceiling: 3100
Heat Index: 19°   Visibility: 10mi
Dew Point: 16°   Wind: 0mph
Humidity: 88%   Direction: NA
Pressure: 29.73"   Gusts: NA
Location:  62.43°N, 142.97°W
Report Text: PAOR 241153Z 00000KT 10SM OVC031 M07/M09 A2973 RMK AO2 SLP104 4/001 T10721089 11056 21072 53002
Loading
Personal Weather Stations






























Interactive Weather Map
Tropical Storm Tracking
New forecast layout! Learn more

10-Day Weather Forecast

Advertisements
Track Severe Weather on mobile